Time;durP1;ratioP1;P1;durP2;ratioP2;P2;SDS_P1;SDS_P2;PMS_P1;PMS_P2;Temp;Humidity;BMP_temperature;BMP_pressure;BME280_temperature;BME280_humidity;BME280_pressure;Samples;Min_cycle;Max_cycle;Signal;HPM_P1;HPM_P2
2022/01/01 08:46:50;;;;;;;92.13;37.40;;;;;;;;;;5658942;22;15121896;-93
2022/01/01 08:49:30;;;;;;;87.97;37.17;;;;;;;;;;6308298;22;20053;-94
2022/01/01 08:51:59;;;;;;;83.15;36.80;;;;;;;;;;6309863;22;20057;-93
2022/01/01 08:54:30;;;;;;;81.10;34.97;;;;;;;;;;6309666;22;20023;-93
2022/01/01 08:56:57;;;;;;;76.05;36.00;;;;;;;;;;6309559;22;20019;-93
2022/01/01 08:59:29;;;;;;;81.55;35.28;;;;;;;;;;6335656;22;20008;-95
2022/01/01 09:02:05;;;;;;;89.10;35.42;;;;;;;;;;6311416;22;20013;-95
2022/01/01 09:04:34;;;;;;;77.65;34.95;;;;;;;;;;6311713;22;20004;-94
2022/01/01 09:07:14;;;;;;;78.60;34.13;;;;;;;;;;6312884;22;20027;-94
2022/01/01 09:09:56;;;;;;;71.15;32.20;;;;;;;;;;6310929;22;20007;-96
2022/01/01 09:12:38;;;;;;;65.07;29.95;;;;;;;;;;6313351;22;19999;-95
2022/01/01 09:15:20;;;;;;;75.20;30.30;;;;;;;;;;6313148;22;19999;-95
2022/01/01 09:17:51;;;;;;;67.90;30.05;;;;;;;;;;6312358;22;20022;-95
2022/01/01 09:20:27;;;;;;;60.13;28.63;;;;;;;;;;6312954;22;20007;-95
2022/01/01 09:23:08;;;;;;;64.75;29.35;;;;;;;;;;6313009;22;19999;-95
2022/01/01 09:25:36;;;;;;;56.33;28.13;;;;;;;;;;6311315;22;20008;-94
2022/01/01 09:28:17;;;;;;;66.82;30.52;;;;;;;;;;6312781;22;20058;-94
2022/01/01 09:30:46;;;;;;;58.95;28.20;;;;;;;;;;6311772;22;20073;-96
2022/01/01 09:33:31;;;;;;;66.05;28.38;;;;;;;;;;6336053;22;20007;-95
2022/01/01 09:36:14;;;;;;;64.93;28.02;;;;;;;;;;6311684;22;20022;-94
2022/01/01 09:38:56;;;;;;;68.15;27.67;;;;;;;;;;6313219;22;20005;-95
2022/01/01 09:41:26;;;;;;;55.35;26.83;;;;;;;;;;6337153;22;20318;-94
2022/01/01 09:44:10;;;;;;;56.88;27.50;;;;;;;;;;6311356;22;20058;-94
2022/01/01 09:46:51;;;;;;;61.60;26.30;;;;;;;;;;6311075;22;20147;-95
2022/01/01 09:49:19;;;;;;;61.45;27.38;;;;;;;;;;6310911;22;20007;-94
2022/01/01 09:51:59;;;;;;;49.47;23.85;;;;;;;;;;6312411;22;20007;-94
2022/01/01 09:54:40;;;;;;;56.78;24.90;;;;;;;;;;6312867;22;20006;-94
2022/01/01 09:57:21;;;;;;;50.03;22.60;;;;;;;;;;6311921;22;20054;-95
2022/01/01 10:00:02;;;;;;;50.70;21.77;;;;;;;;;;6309986;22;20019;-94
2022/01/01 10:02:43;;;;;;;46.97;22.08;;;;;;;;;;6312622;22;19999;-94
2022/01/01 10:05:23;;;;;;;48.30;22.55;;;;;;;;;;6310132;22;20014;-95
2022/01/01 10:08:09;;;;;;;45.63;23.45;;;;;;;;;;6311061;22;20007;-94
2022/01/01 10:10:40;;;;;;;48.88;22.30;;;;;;;;;;6310745;22;20003;-92
2022/01/01 10:13:12;;;;;;;65.43;23.88;;;;;;;;;;6311586;22;20020;-92
2022/01/01 10:15:39;;;;;;;45.83;21.98;;;;;;;;;;6310746;22;20043;-93
2022/01/01 10:18:07;;;;;;;53.67;23.10;;;;;;;;;;6310667;22;20007;-94
2022/01/01 10:20:36;;;;;;;51.33;22.42;;;;;;;;;;6311062;22;20007;-93
2022/01/01 10:23:16;;;;;;;57.70;23.25;;;;;;;;;;6313471;22;20035;-93
2022/01/01 10:39:25;;;;;;;50.35;22.17;;;;;;;;;;6264713;22;1914269;-93
2022/01/01 10:42:00;;;;;;;44.60;22.55;;;;;;;;;;6316654;22;20013;-95
2022/01/01 10:44:28;;;;;;;44.53;20.58;;;;;;;;;;6316580;22;20028;-94
2022/01/01 10:47:27;;;;;;;47.10;21.20;;;;;;;;;;6317368;22;20018;-94
2022/01/01 10:52:45;;;;;;;44.13;22.33;;;;;;;;;;6342842;22;20019;-95
2022/01/01 10:55:12;;;;;;;47.60;20.80;;;;;;;;;;6315921;22;20023;-94
2022/01/01 10:57:52;;;;;;;43.08;20.45;;;;;;;;;;6314922;22;20007;-95
2022/01/01 11:00:20;;;;;;;50.97;21.95;;;;;;;;;;6313871;22;20018;-95
2022/01/01 11:03:00;;;;;;;46.75;21.30;;;;;;;;;;6315328;22;20029;-95
2022/01/01 11:05:38;;;;;;;48.28;21.80;;;;;;;;;;6318107;22;20054;-95
2022/01/01 11:08:34;;;;;;;46.70;21.48;;;;;;;;;;6340264;22;20015;-95
2022/01/01 11:11:06;;;;;;;52.00;21.90;;;;;;;;;;6316678;22;20027;-94
2022/01/01 11:13:33;;;;;;;52.75;22.05;;;;;;;;;;6315440;22;20029;-95
2022/01/01 11:19:31;;;;;;;50.35;21.17;;;;;;;;;;6342870;22;19994;-94
2022/01/01 11:21:58;;;;;;;;;;;;;;;;;;6316418;22;20022;-94
2022/01/01 11:24:25;;;;;;;45.22;21.63;;;;;;;;;;6341191;22;19929;-95
2022/01/01 11:26:55;;;;;;;54.20;23.17;;;;;;;;;;6315599;22;20052;-94
2022/01/01 11:29:33;;;;;;;45.25;21.40;;;;;;;;;;6316518;22;20023;-95
2022/01/01 11:32:03;;;;;;;43.97;21.33;;;;;;;;;;6316316;22;20007;-95
2022/01/01 11:34:31;;;;;;;46.85;20.58;;;;;;;;;;6316793;22;20034;-94
2022/01/01 11:36:59;;;;;;;49.33;24.48;;;;;;;;;;6316552;22;20007;-94
2022/01/01 11:39:27;;;;;;;42.88;22.05;;;;;;;;;;6309714;22;20019;-95
2022/01/01 11:42:08;;;;;;;43.85;21.17;;;;;;;;;;6309294;22;20027;-94
2022/01/01 11:44:35;;;;;;;43.67;20.95;;;;;;;;;;6309962;22;20041;-95
2022/01/01 11:47:32;;;;;;;38.75;20.45;;;;;;;;;;6335589;22;20021;-95
2022/01/01 11:50:04;;;;;;;39.10;20.55;;;;;;;;;;6310366;22;20019;-94
2022/01/01 11:52:42;;;;;;;42.00;20.98;;;;;;;;;;6291858;22;20075;-93
2022/01/01 11:55:12;;;;;;;44.13;20.15;;;;;;;;;;6305215;22;20015;-94
2022/01/01 11:57:57;;;;;;;37.53;20.38;;;;;;;;;;6305077;22;20012;-95
2022/01/01 12:00:55;;;;;;;38.40;19.77;;;;;;;;;;6304760;22;20012;-94
2022/01/01 12:03:23;;;;;;;40.78;20.08;;;;;;;;;;6304949;22;20008;-94
2022/01/01 12:06:03;;;;;;;39.45;18.45;;;;;;;;;;6304012;22;20031;-95
2022/01/01 12:08:51;;;;;;;41.70;18.52;;;;;;;;;;6303423;22;20034;-94
2022/01/01 12:11:32;;;;;;;38.75;17.70;;;;;;;;;;6304761;22;20003;-94
2022/01/01 12:14:19;;;;;;;33.65;16.15;;;;;;;;;;6303725;22;20003;-94
2022/01/01 12:19:24;;;;;;;31.73;16.60;;;;;;;;;;6310687;22;20011;-95
2022/01/01 12:22:06;;;;;;;30.25;14.93;;;;;;;;;;6310249;22;20004;-94
2022/01/01 12:24:47;;;;;;;29.10;14.95;;;;;;;;;;6311422;22;20075;-92
2022/01/01 12:27:52;;;;;;;34.17;14.38;;;;;;;;;;6310580;22;20061;-93
2022/01/01 12:30:33;;;;;;;30.30;14.82;;;;;;;;;;6217030;23;20032;-95
2022/01/01 12:36:46;;;;;;;26.48;13.68;;;;;;;;;;6336577;22;19997;-94
2022/01/01 12:39:16;;;;;;;32.40;12.50;;;;;;;;;;6310455;22;20058;-94
2022/01/01 12:41:44;;;;;;;27.33;12.63;;;;;;;;;;6310214;22;20030;-94
2022/01/01 12:44:33;;;;;;;26.58;12.30;;;;;;;;;;6219451;22;20014;-94
2022/01/01 12:47:13;;;;;;;27.50;11.65;;;;;;;;;;6217377;22;20008;-94
2022/01/01 12:52:32;;;;;;;28.25;11.35;;;;;;;;;;6206926;22;20013;-94
2022/01/01 12:55:00;;;;;;;26.70;11.88;;;;;;;;;;6304405;22;20003;-94
2022/01/01 12:57:51;;;;;;;23.52;11.15;;;;;;;;;;6292336;22;20074;-93
2022/01/01 13:00:22;;;;;;;23.25;10.70;;;;;;;;;;6304804;22;20011;-94
2022/01/01 13:02:55;;;;;;;24.23;10.02;;;;;;;;;;6305554;22;20011;-94
2022/01/01 13:05:23;;;;;;;26.70;11.00;;;;;;;;;;6303194;22;20023;-93
2022/01/01 13:14:52;;;;;;;24.73;9.27;;;;;;;;;;6305361;22;20003;-95
2022/01/01 13:17:24;;;;;;;24.42;9.07;;;;;;;;;;6303899;22;20011;-95
2022/01/01 13:19:55;;;;;;;23.80;9.13;;;;;;;;;;6304301;22;20023;-95
2022/01/01 13:22:31;;;;;;;18.98;7.60;;;;;;;;;;6302286;22;20007;-94
2022/01/01 13:25:12;;;;;;;30.58;8.32;;;;;;;;;;6283343;22;20053;-94
2022/01/01 13:27:44;;;;;;;24.70;8.15;;;;;;;;;;6328846;22;20126;-95
2022/01/01 13:30:37;;;;;;;19.42;7.85;;;;;;;;;;6330048;22;20015;-95
2022/01/01 13:33:07;;;;;;;19.40;6.90;;;;;;;;;;6331588;22;20007;-93
2022/01/01 13:35:38;;;;;;;15.95;7.30;;;;;;;;;;6331523;22;20018;-93
2022/01/01 13:38:09;;;;;;;19.10;6.82;;;;;;;;;;6331668;22;20014;-94
2022/01/01 13:40:39;;;;;;;18.50;6.40;;;;;;;;;;6331727;22;20011;-94
2022/01/01 13:43:20;;;;;;;18.83;6.80;;;;;;;;;;6335512;22;20007;-94
2022/01/01 13:46:03;;;;;;;17.80;5.97;;;;;;;;;;6335498;22;20026;-94
2022/01/01 13:48:43;;;;;;;20.17;6.18;;;;;;;;;;6335154;22;20027;-96
2022/01/01 13:51:27;;;;;;;19.10;6.45;;;;;;;;;;6331628;22;20304;-95
2022/01/01 13:54:17;;;;;;;16.38;5.47;;;;;;;;;;6331609;22;20056;-95
2022/01/01 13:56:45;;;;;;;;;;;;;;;;;;6332034;22;20011;-95
2022/01/01 13:59:12;;;;;;;17.83;5.90;;;;;;;;;;6328429;22;19915;-94
2022/01/01 14:01:39;;;;;;;18.88;5.20;;;;;;;;;;6328698;22;20023;-95
2022/01/01 14:04:29;;;;;;;20.58;5.72;;;;;;;;;;6331649;22;20022;-95
2022/01/01 14:09:31;;;;;;;16.98;5.22;;;;;;;;;;6317259;22;20029;-94
2022/01/01 14:11:58;;;;;;;12.27;5.07;;;;;;;;;;6329478;22;20038;-94
2022/01/01 14:14:29;;;;;;;21.83;5.70;;;;;;;;;;6302862;22;20092;-93
2022/01/01 14:16:59;;;;;;;16.10;5.03;;;;;;;;;;6303612;22;20031;-96
2022/01/01 14:19:32;;;;;;;24.35;5.97;;;;;;;;;;6327940;22;20060;-93
2022/01/01 14:22:08;;;;;;;17.35;4.97;;;;;;;;;;6300646;22;20075;-94
2022/01/01 14:24:55;;;;;;;17.27;5.38;;;;;;;;;;6300624;22;20049;-94
2022/01/01 14:27:23;;;;;;;17.35;5.13;;;;;;;;;;6302780;22;20140;-94
2022/01/01 14:29:50;;;;;;;19.65;5.40;;;;;;;;;;6329610;22;20011;-94
2022/01/01 14:32:24;;;;;;;17.45;4.82;;;;;;;;;;6330729;22;20007;-94
2022/01/01 14:34:55;;;;;;;13.40;4.75;;;;;;;;;;6301880;22;20021;-93
2022/01/01 14:37:22;;;;;;;17.60;4.85;;;;;;;;;;6299030;22;20023;-95
2022/01/01 14:40:00;;;;;;;16.35;4.70;;;;;;;;;;6325670;22;20081;-93
2022/01/01 14:42:41;;;;;;;11.65;4.53;;;;;;;;;;6324324;22;20023;-94
2022/01/01 14:45:10;;;;;;;15.07;4.55;;;;;;;;;;6325303;22;20023;-95
2022/01/01 14:47:45;;;;;;;18.00;5.50;;;;;;;;;;6325413;22;20271;-95
2022/01/01 14:50:22;;;;;;;13.98;5.60;;;;;;;;;;6327962;22;20035;-94
2022/01/01 14:53:02;;;;;;;19.13;5.22;;;;;;;;;;6327829;22;20011;-95
2022/01/01 14:55:51;;;;;;;16.80;5.63;;;;;;;;;;6305512;22;20062;-95
2022/01/01 14:58:23;;;;;;;23.13;6.22;;;;;;;;;;6301936;22;20070;-96
2022/01/01 15:00:51;;;;;;;18.02;5.10;;;;;;;;;;6299945;22;20019;-94
2022/01/01 15:03:19;;;;;;;19.10;5.55;;;;;;;;;;6323714;22;20019;-94
2022/01/01 15:05:51;;;;;;;18.65;4.63;;;;;;;;;;6324822;22;20023;-94
2022/01/01 15:08:23;;;;;;;19.02;5.32;;;;;;;;;;6293974;22;20103;-93
2022/01/01 15:10:53;;;;;;;20.52;5.18;;;;;;;;;;6294578;22;20023;-94
2022/01/01 15:13:26;;;;;;;13.77;4.88;;;;;;;;;;6295124;22;20031;-94
2022/01/01 15:15:56;;;;;;;13.60;5.38;;;;;;;;;;6298768;22;20128;-93
2022/01/01 15:18:28;;;;;;;13.32;5.35;;;;;;;;;;6299203;22;20008;-94
2022/01/01 15:21:00;;;;;;;17.33;5.28;;;;;;;;;;6297939;22;20034;-94
2022/01/01 15:23:57;;;;;;;15.93;5.90;;;;;;;;;;6297524;22;20023;-94
2022/01/01 15:26:31;;;;;;;17.98;5.47;;;;;;;;;;6299298;22;20067;-94
2022/01/01 15:29:02;;;;;;;19.30;5.82;;;;;;;;;;6298149;22;20020;-94
2022/01/01 15:33:11;;;;;;;17.95;5.25;;;;;;;;;;6300793;22;20015;-95
2022/01/01 15:34:49;;;;;;;15.68;5.15;;;;;;;;;;6301274;22;20054;-93
2022/01/01 15:37:18;;;;;;;12.73;5.00;;;;;;;;;;6298234;22;20028;-94
2022/01/01 15:39:47;;;;;;;20.25;5.15;;;;;;;;;;6299516;22;20004;-95
2022/01/01 15:42:34;;;;;;;19.40;5.50;;;;;;;;;;6303432;22;20020;-95
2022/01/01 15:45:01;;;;;;;18.05;5.63;;;;;;;;;;6304545;22;20019;-94
2022/01/01 15:47:29;;;;;;;14.95;5.45;;;;;;;;;;6305185;22;20011;-95
2022/01/01 15:53:23;;;;;;;14.88;5.55;;;;;;;;;;6305978;22;19999;-94
2022/01/01 15:55:55;;;;;;;15.43;5.88;;;;;;;;;;6304933;22;20022;-95
2022/01/01 16:58:41;;;;;;;12.13;3.92;;;;;;;;;;6289000;22;19991;-94
2022/01/01 17:01:10;;;;;;;15.75;5.60;;;;;;;;;;6334361;22;20007;-94
2022/01/01 17:07:31;;;;;;;10.73;4.22;;;;;;;;;;6336004;22;20010;-93
2022/01/01 17:09:59;;;;;;;12.25;4.88;;;;;;;;;;6334998;22;20047;-92
2022/01/01 17:12:26;;;;;;;12.98;4.50;;;;;;;;;;6317980;22;20035;-94
2022/01/01 17:14:54;;;;;;;13.57;4.07;;;;;;;;;;6289736;22;20027;-93
2022/01/01 17:17:31;;;;;;;10.82;4.25;;;;;;;;;;6302007;22;20007;-94
2022/01/01 17:24:00;;;;;;;12.95;4.03;;;;;;;;;;6305109;22;20006;-94
2022/01/01 17:26:32;;;;;;;15.52;4.97;;;;;;;;;;6303928;22;20003;-95
2022/01/01 17:29:03;;;;;;;14.95;4.63;;;;;;;;;;6303987;22;20014;-95
2022/01/01 17:31:40;;;;;;;18.70;4.57;;;;;;;;;;6302221;22;20018;-94
2022/01/01 17:37:28;;;;;;;12.32;4.18;;;;;;;;;;6223548;22;20042;-95
2022/01/01 17:39:58;;;;;;;15.55;5.80;;;;;;;;;;6303604;22;20004;-94
2022/01/01 17:42:27;;;;;;;14.88;4.93;;;;;;;;;;6303424;22;20030;-94
2022/01/01 17:48:19;;;;;;;14.18;5.15;;;;;;;;;;6304006;22;20018;-94
2022/01/01 17:50:49;;;;;;;15.85;4.32;;;;;;;;;;6303912;22;20008;-94
2022/01/01 17:53:18;;;;;;;10.07;3.88;;;;;;;;;;6303375;22;20011;-94
2022/01/01 17:55:44;;;;;;;13.50;4.20;;;;;;;;;;6303602;22;20034;-94
2022/01/01 17:58:23;;;;;;;15.02;3.65;;;;;;;;;;6303008;22;20011;-95
2022/01/01 18:00:51;;;;;;;13.73;3.88;;;;;;;;;;6303071;22;20050;-94
2022/01/01 18:03:18;;;;;;;10.73;4.05;;;;;;;;;;6303781;22;20004;-94
2022/01/01 18:06:05;;;;;;;13.30;3.40;;;;;;;;;;6303336;22;20011;-94
2022/01/01 18:08:39;;;;;;;13.63;4.18;;;;;;;;;;6303099;22;20042;-94
2022/01/01 18:11:15;;;;;;;16.02;4.18;;;;;;;;;;6303424;22;20024;-94
2022/01/01 18:13:46;;;;;;;11.98;3.88;;;;;;;;;;6308129;22;20015;-94
2022/01/01 18:16:27;;;;;;;10.90;3.90;;;;;;;;;;6309030;22;20011;-94
2022/01/01 18:32:26;;;;;;;7.38;2.88;;;;;;;;;;6334983;22;20005;-95
2022/01/01 18:34:55;;;;;;;9.23;3.60;;;;;;;;;;6309129;22;20021;-94
2022/01/01 18:37:25;;;;;;;10.23;4.10;;;;;;;;;;6308839;22;20024;-92
2022/01/01 18:39:53;;;;;;;9.93;3.13;;;;;;;;;;6308272;22;20007;-94
2022/01/01 18:49:11;;;;;;;10.02;3.50;;;;;;;;;;6335326;22;20022;-93
2022/01/01 18:51:39;;;;;;;10.52;3.50;;;;;;;;;;6310119;22;20014;-94
2022/01/01 18:54:08;;;;;;;9.30;3.28;;;;;;;;;;6310783;22;20015;-94
2022/01/01 18:56:46;;;;;;;11.60;3.58;;;;;;;;;;6310894;22;20007;-94
2022/01/01 18:59:31;;;;;;;11.18;3.17;;;;;;;;;;6312304;22;20007;-93
2022/01/01 19:02:01;;;;;;;12.18;3.17;;;;;;;;;;6311044;22;20011;-93
2022/01/01 19:11:50;;;;;;;14.63;3.53;;;;;;;;;;6337620;22;20030;-93
2022/01/01 19:14:25;;;;;;;11.63;3.55;;;;;;;;;;6311721;22;20030;-94
2022/01/01 19:16:53;;;;;;;9.57;3.45;;;;;;;;;;6311118;22;20030;-94
2022/01/01 19:23:01;;;;;;;6.32;2.70;;;;;;;;;;6337235;22;20100;-95
2022/01/01 19:25:29;;;;;;;12.15;4.07;;;;;;;;;;6311331;22;20029;-94
2022/01/01 19:28:00;;;;;;;13.52;3.20;;;;;;;;;;6311011;22;20003;-94
2022/01/01 19:31:25;;;;;;;11.35;3.47;;;;;;;;;;6315493;22;20037;-94
2022/01/01 19:33:55;;;;;;;8.30;3.28;;;;;;;;;;6336930;22;20019;-93
2022/01/01 19:36:22;;;;;;;13.73;3.95;;;;;;;;;;6311635;22;20067;-94
2022/01/01 19:38:50;;;;;;;9.20;3.33;;;;;;;;;;6311726;22;20014;-95
2022/01/01 19:41:33;;;;;;;11.60;4.20;;;;;;;;;;6312666;22;20042;-93
2022/01/01 19:44:19;;;;;;;11.13;3.38;;;;;;;;;;6311314;22;20007;-93
2022/01/01 19:47:16;;;;;;;10.20;3.53;;;;;;;;;;6313005;22;20023;-94
2022/01/01 19:49:49;;;;;;;7.70;3.20;;;;;;;;;;6310995;22;20027;-94
2022/01/01 19:52:16;;;;;;;16.90;4.50;;;;;;;;;;6337350;22;20065;-95
2022/01/01 19:55:08;;;;;;;9.10;3.60;;;;;;;;;;6310628;22;20007;-95
2022/01/01 19:57:36;;;;;;;5.72;2.88;;;;;;;;;;6311319;22;20014;-95
2022/01/01 20:00:04;;;;;;;6.68;3.08;;;;;;;;;;6311063;22;20030;-95
2022/01/01 20:02:31;;;;;;;8.15;2.97;;;;;;;;;;6311289;22;20019;-95
2022/01/01 20:47:45;;;;;;;11.15;3.58;;;;;;;;;;6244185;23;20036;-93
2022/01/01 20:50:12;;;;;;;16.17;3.85;;;;;;;;;;6218558;23;20031;-93
2022/01/01 20:52:39;;;;;;;9.00;3.75;;;;;;;;;;6218392;23;20009;-95
2022/01/01 20:57:42;;;;;;;6.25;3.30;;;;;;;;;;6288695;22;20029;-93
2022/01/01 21:00:09;;;;;;;7.65;3.42;;;;;;;;;;6334152;22;20030;-93
2022/01/01 21:02:37;;;;;;;5.50;3.50;;;;;;;;;;6306087;22;20023;-93
2022/01/01 21:05:08;;;;;;;10.57;3.60;;;;;;;;;;6309068;22;20019;-94
2022/01/01 21:07:40;;;;;;;7.18;2.75;;;;;;;;;;6309634;22;20029;-93
2022/01/01 21:10:19;;;;;;;9.13;4.55;;;;;;;;;;6311202;22;20059;-93
2022/01/01 21:12:48;;;;;;;6.38;3.03;;;;;;;;;;6309032;22;20017;-94
2022/01/01 21:15:15;;;;;;;9.20;3.55;;;;;;;;;;6309512;22;20037;-94
2022/01/01 21:17:42;;;;;;;9.60;3.60;;;;;;;;;;6309472;22;20015;-94
2022/01/01 21:26:54;;;;;;;8.82;3.05;;;;;;;;;;6336163;22;20006;-93
2022/01/01 21:29:23;;;;;;;7.22;3.25;;;;;;;;;;6335774;22;20019;-95
2022/01/01 21:32:00;;;;;;;8.18;3.72;;;;;;;;;;6335762;22;20007;-94
2022/01/01 21:34:39;;;;;;;10.35;5.07;;;;;;;;;;6335720;22;20028;-93
2022/01/01 21:37:07;;;;;;;9.43;3.78;;;;;;;;;;6335279;22;20003;-93
2022/01/01 22:39:11;;;;;;;7.35;3.53;;;;;;;;;;6302939;22;20015;-94
2022/01/01 22:41:41;;;;;;;6.60;3.25;;;;;;;;;;6279094;22;20007;-94
2022/01/01 22:44:08;;;;;;;8.70;3.67;;;;;;;;;;6278185;22;20004;-95
2022/01/01 22:46:35;;;;;;;7.60;3.38;;;;;;;;;;6278647;22;20011;-95
2022/01/01 22:49:03;;;;;;;5.50;3.33;;;;;;;;;;6278474;22;20007;-95
2022/01/01 22:51:30;;;;;;;6.15;3.20;;;;;;;;;;6278678;22;20074;-96
2022/01/01 22:54:04;;;;;;;7.30;3.45;;;;;;;;;;6304430;22;20051;-95
2022/01/01 22:56:31;;;;;;;9.38;3.60;;;;;;;;;;6278424;22;20026;-94
2022/01/01 22:59:02;;;;;;;9.05;3.85;;;;;;;;;;6279113;22;20027;-95
2022/01/01 23:01:33;;;;;;;9.52;3.75;;;;;;;;;;6279415;22;20008;-96
2022/01/01 23:04:01;;;;;;;4.40;3.15;;;;;;;;;;6278466;22;20007;-95
2022/01/01 23:13:33;;;;;;;8.55;3.70;;;;;;;;;;6304486;22;20034;-96
2022/01/01 23:16:11;;;;;;;11.05;3.80;;;;;;;;;;6278613;22;20017;-94
2022/01/01 23:18:55;;;;;;;7.70;3.28;;;;;;;;;;6278468;22;20012;-95
2022/01/01 23:21:31;;;;;;;8.77;4.18;;;;;;;;;;6278958;22;20038;-95
2022/01/01 23:23:58;;;;;;;6.30;3.30;;;;;;;;;;6278306;22;20043;-95
2022/01/01 23:26:46;;;;;;;7.28;3.95;;;;;;;;;;6242115;23;20020;-94
2022/01/01 23:29:16;;;;;;;5.80;3.63;;;;;;;;;;6216855;23;20013;-95
2022/01/01 23:31:44;;;;;;;9.80;4.07;;;;;;;;;;6217325;23;20056;-94
2022/01/01 23:34:26;;;;;;;8.27;4.15;;;;;;;;;;6217518;23;20028;-95
2022/01/01 23:36:55;;;;;;;8.60;3.90;;;;;;;;;;6218378;22;20005;-94
2022/01/01 23:39:26;;;;;;;6.28;3.75;;;;;;;;;;6243868;23;20009;-94
2022/01/01 23:41:59;;;;;;;8.85;4.25;;;;;;;;;;6219453;23;20032;-94
2022/01/01 23:44:30;;;;;;;5.40;3.33;;;;;;;;;;6218389;23;20012;-94
2022/01/01 23:46:58;;;;;;;9.35;3.90;;;;;;;;;;6218086;23;20020;-92
2022/01/01 23:49:27;;;;;;;9.25;3.67;;;;;;;;;;6218296;23;20017;-94
2022/01/01 23:52:04;;;;;;;8.13;4.03;;;;;;;;;;6218575;23;20009;-93
2022/01/01 23:54:44;;;;;;;6.25;4.13;;;;;;;;;;6218331;23;20068;-94
2022/01/01 23:57:16;;;;;;;8.02;4.25;;;;;;;;;;6258777;22;20066;-94
2022/01/01 23:59:47;;;;;;;13.52;4.15;;;;;;;;;;6279415;22;20007;-94
